^^
Datos históricos de la estación: Murcia-Puente Tocinos
Diario Informe para Diciembre 20, 2019 Unidades:  Métrico    Ingés   Ambas
Diario Semanal Mensual Anual
  Máxima: Mínima: Promedio:
Temperatura: 20.5 °C 9.7 °C 17.1 °C
Punto de rocio: 14.6 °C 7.5 °C 12.4 °C
Humedad: 88.7% 57.3% 74%
Velocidad viento: 23.7km/h 2.2km/h 11.5km/h
Racha viento: 46.7km/h - -
Viento- - SSO
Presión: 1010.2 hPa 1002.0 hPa -
Precipitación: 0.0 mm    
 
 
Tabla de datos para Diciembre 20, 2019
Hora Temperatura Punto de rocio Presión Viento Velocidad viento Racha viento Humedad Intensidad lluvia(por hora) Nubes
00:04 9.9 °C 7.5 °C 1010.2 hPa ONO 4.2 km/h 12.9 km/h 85% 0.0 mm
00:09 9.9 °C 7.5 °C 1010.2 hPa NO 5.8 km/h 8 km/h 85% 0.0 mm
00:14 9.8 °C 7.5 °C 1010.1 hPa NO 4.4 km/h 8 km/h 85.5% 0.0 mm
00:19 9.8 °C 7.6 °C 1010.1 hPa NO 3.2 km/h 8.4 km/h 86% 0.0 mm
00:24 9.7 °C 7.5 °C 1010.1 hPa NNE 3.6 km/h 8 km/h 86% 0.0 mm
00:29 9.7 °C 7.6 °C 1009.9 hPa NNE 3.9 km/h 8 km/h 86.7% 0.0 mm
00:34 9.7 °C 7.7 °C 1009.9 hPa ENE 4.3 km/h 9.3 km/h 87% 0.0 mm
00:39 9.7 °C 7.7 °C 1009.9 hPa SE 4.7 km/h 9.7 km/h 87% 0.0 mm
00:44 9.8 °C 7.7 °C 1009.8 hPa SSE 4.8 km/h 11.9 km/h 87% 0.0 mm
00:49 9.8 °C 7.7 °C 1009.8 hPa Sur 5 km/h 11.3 km/h 87% 0.0 mm
00:54 9.8 °C 7.7 °C 1009.8 hPa Sur 5.4 km/h 11.3 km/h 87% 0.0 mm
00:59 9.8 °C 7.7 °C 1009.2 hPa Oeste 5.8 km/h 9.7 km/h 87% 0.0 mm
01:04 9.9 °C 7.8 °C 1009.2 hPa Oeste 4.2 km/h 8 km/h 87% 0.0 mm
01:09 9.9 °C 7.8 °C 1009.2 hPa NNO 2.9 km/h 8 km/h 87% 0.0 mm
01:14 9.9 °C 7.8 °C 1008.8 hPa NNO 3.1 km/h 8 km/h 87% 0.0 mm
01:19 9.9 °C 7.8 °C 1008.8 hPa NNO 3.2 km/h 9.3 km/h 87% 0.0 mm
01:24 9.9 °C 7.8 °C 1008.9 hPa North 3.6 km/h 9.7 km/h 87% 0.0 mm
01:29 10 °C 7.9 °C 1008.9 hPa NNE 3.9 km/h 9.7 km/h 87% 0.0 mm
01:34 10.1 °C 8 °C 1008.9 hPa NE 4.3 km/h 8 km/h 87% 0.0 mm
01:39 10.1 °C 8.1 °C 1008.9 hPa NE 4.6 km/h 8.4 km/h 87% 0.0 mm
01:44 10.2 °C 8.1 °C 1008.2 hPa NE 3.9 km/h 8 km/h 87% 0.0 mm
01:49 10.2 °C 8.1 °C 1008.2 hPa NE 3.2 km/h 13 km/h 87% 0.0 mm
01:54 10.3 °C 8.2 °C 1008.2 hPa NE 4.8 km/h 12.9 km/h 87% 0.0 mm
01:59 10.3 °C 8.1 °C 1007.7 hPa NNE 6.5 km/h 9.7 km/h 86.2% 0.0 mm
02:04 10.3 °C 8.1 °C 1007.7 hPa NNE 5.1 km/h 8 km/h 86% 0.0 mm
02:09 10.3 °C 8 °C 1007.7 hPa ONO 3.9 km/h 10 km/h 86% 0.0 mm
02:14 10.2 °C 8 °C 1007.7 hPa ONO 4.4 km/h 9.7 km/h 86.5% 0.0 mm
02:19 10.2 °C 8.1 °C 1007.7 hPa ONO 5 km/h 13 km/h 87% 0.0 mm
02:24 10.2 °C 8.1 °C 1007.7 hPa NO 5.8 km/h 13 km/h 87% 0.0 mm
02:29 10.2 °C 8.1 °C 1007.2 hPa NO 6.5 km/h 16.7 km/h 87% 0.0 mm
02:34 10.2 °C 8.3 °C 1007.2 hPa NNO 7 km/h 16.1 km/h 88.2% 0.0 mm
02:39 10.7 °C 8.9 °C 1007.2 hPa ONO 7.6 km/h 11.9 km/h 88.7% 0.0 mm
02:44 11.2 °C 8.9 °C 1007.1 hPa NNO 6.7 km/h 11.3 km/h 86.2% 0.0 mm
02:49 11.3 °C 8.8 °C 1007.1 hPa NNO 5.8 km/h 9.7 km/h 84.7% 0.0 mm
02:54 11.3 °C 8.7 °C 1007.3 hPa North 5.4 km/h 9.5 km/h 84.3% 0.0 mm
02:59 11.4 °C 8.8 °C 1007.3 hPa NNE 5 km/h 11.1 km/h 84% 0.0 mm
03:04 11.6 °C 9 °C 1007.3 hPa North 5 km/h 11.3 km/h 84% 0.0 mm
03:09 11.7 °C 9.1 °C 1007.5 hPa NNO 5 km/h 10 km/h 84% 0.0 mm
03:14 11.8 °C 9.2 °C 1007.5 hPa North 5 km/h 9.7 km/h 83.9% 0.0 mm
03:19 12 °C 9.2 °C 1007.5 hPa NNO 5 km/h 8.4 km/h 83% 0.0 mm
03:24 12.2 °C 9.2 °C 1007.5 hPa NO 4.8 km/h 8 km/h 82.2% 0.0 mm
03:29 12.4 °C 9.5 °C 1007.5 hPa NO 4.7 km/h 7.4 km/h 82.3% 0.0 mm
03:34 12.7 °C 9.5 °C 1007.5 hPa NO 3.8 km/h 8 km/h 81% 0.0 mm
03:39 12.8 °C 9.3 °C 1007.5 hPa SO 2.9 km/h 9.3 km/h 79.3% 0.0 mm
03:44 12.7 °C 9.1 °C 1007.4 hPa OSO 3.1 km/h 9.7 km/h 79% 0.0 mm
03:49 12.5 °C 9.1 °C 1007.4 hPa OSO 3.2 km/h 7.4 km/h 79.5% 0.0 mm
03:54 12.4 °C 9.2 °C 1007.4 hPa OSO 3.1 km/h 8 km/h 80.7% 0.0 mm
03:59 12.6 °C 9.4 °C 1007.0 hPa SSO 2.9 km/h 9.5 km/h 81% 0.0 mm
04:04 12.7 °C 9.4 °C 1007.0 hPa SSE 4 km/h 9.7 km/h 80.3% 0.0 mm
04:09 13 °C 9.7 °C 1007.0 hPa Sur 5 km/h 8 km/h 80.3% 0.0 mm
04:14 13.2 °C 9.6 °C 1006.6 hPa Sur 4.1 km/h 5.6 km/h 79% 0.0 mm
04:19 13.5 °C 9.9 °C 1006.6 hPa Sur 3.2 km/h 11.9 km/h 79% 0.0 mm
04:24 14 °C 10.4 °C 1006.6 hPa Sur 4.1 km/h 13 km/h 78.8% 0.0 mm
04:29 14.6 °C 10.7 °C 1006.1 hPa Sur 5 km/h 22 km/h 77.3% 0.0 mm
04:34 15.4 °C 11 °C 1006.1 hPa Sur 9.3 km/h 27.8 km/h 74.9% 0.0 mm
04:39 15.9 °C 11.1 °C 1006.1 hPa Sur 13.7 km/h 31.7 km/h 72.9% 0.0 mm
04:44 16.3 °C 11.1 °C 1005.8 hPa Sur 15.1 km/h 37.8 km/h 71.3% 0.0 mm
04:49 16.5 °C 11.1 °C 1005.8 hPa Sur 16.4 km/h 37 km/h 70.3% 0.0 mm
04:54 16.6 °C 11.1 °C 1005.8 hPa Sur 18.1 km/h 33.8 km/h 70% 0.0 mm
04:59 16.7 °C 11 °C 1005.4 hPa Sur 19.8 km/h 35.2 km/h 69.4% 0.0 mm
05:04 16.6 °C 11 °C 1005.4 hPa Sur 19 km/h 35.4 km/h 69.3% 0.0 mm
05:09 16.5 °C 11 °C 1005.4 hPa Sur 18.4 km/h 33.3 km/h 70% 0.0 mm
05:14 16.5 °C 11 °C 1005.1 hPa Sur 18.4 km/h 33.8 km/h 70% 0.0 mm
05:19 16.4 °C 11 °C 1005.1 hPa Sur 18.4 km/h 34.3 km/h 70.3% 0.0 mm
05:24 16.4 °C 11.2 °C 1005.1 hPa Sur 19.1 km/h 37.8 km/h 71.2% 0.0 mm
05:29 16.4 °C 11.3 °C 1004.8 hPa Sur 19.8 km/h 37 km/h 72% 0.0 mm
05:34 16.4 °C 11.5 °C 1004.8 hPa Sur 20.9 km/h 41.2 km/h 72.9% 0.0 mm
05:39 16.4 °C 11.6 °C 1004.9 hPa Sur 22.1 km/h 41.8 km/h 73% 0.0 mm
05:44 16.4 °C 11.7 °C 1004.9 hPa Sur 22.1 km/h 38.6 km/h 73.6% 0.0 mm
05:49 16.4 °C 11.8 °C 1004.9 hPa Sur 22.1 km/h 30.6 km/h 74% 0.0 mm
05:54 16.4 °C 11.8 °C 1004.9 hPa Sur 19.1 km/h 30.6 km/h 74% 0.0 mm
05:59 16.4 °C 11.8 °C 1004.3 hPa Sur 16.4 km/h 30.6 km/h 74.2% 0.0 mm
06:04 16.4 °C 12 °C 1004.3 hPa Sur 16.2 km/h 31.7 km/h 75% 0.0 mm
06:09 16.6 °C 12.1 °C 1004.3 hPa Sur 16.1 km/h 37 km/h 75% 0.0 mm
06:14 16.6 °C 12.1 °C 1004.0 hPa Sur 18.6 km/h 37 km/h 75% 0.0 mm
06:19 16.4 °C 12.1 °C 1004.0 hPa SSO 20.9 km/h 33.8 km/h 75.5% 0.0 mm
06:24 16.4 °C 12.2 °C 1004.1 hPa SSO 18.2 km/h 27.4 km/h 76% 0.0 mm
06:29 16.5 °C 12.3 °C 1004.1 hPa SSO 15.6 km/h 25.7 km/h 76% 0.0 mm
06:34 16.4 °C 12.2 °C 1004.1 hPa SSO 14.6 km/h 25.9 km/h 76% 0.0 mm
06:39 16.4 °C 12.2 °C 1004.4 hPa SSO 13.7 km/h 25.9 km/h 76.5% 0.0 mm
06:44 16.4 °C 12.3 °C 1004.4 hPa Sur 15.5 km/h 28.2 km/h 77% 0.0 mm
06:49 16.5 °C 12.5 °C 1004.4 hPa SSO 17.2 km/h 35.9 km/h 77% 0.0 mm
06:54 16.6 °C 12.6 °C 1004.7 hPa SSO 17.6 km/h 35.4 km/h 77.1% 0.0 mm
06:59 16.6 °C 12.7 °C 1004.7 hPa Sur 18 km/h 35.4 km/h 78% 0.0 mm
07:04 16.7 °C 12.8 °C 1004.7 hPa Sur 19.1 km/h 39.6 km/h 77.8% 0.0 mm
07:09 16.8 °C 12.8 °C 1004.7 hPa Sur 20.1 km/h 40.2 km/h 77% 0.0 mm
07:14 16.9 °C 12.8 °C 1004.5 hPa Sur 21.9 km/h 39.6 km/h 77% 0.0 mm
07:19 16.9 °C 12.8 °C 1004.5 hPa SSO 23.7 km/h 44.4 km/h 76.9% 0.0 mm
07:24 16.9 °C 12.7 °C 1004.5 hPa Sur 23.5 km/h 45.1 km/h 76.4% 0.0 mm
07:29 16.8 °C 12.7 °C 1004.3 hPa Sur 23.3 km/h 35.9 km/h 77% 0.0 mm
07:34 16.8 °C 12.7 °C 1004.3 hPa Sur 22.5 km/h 35.4 km/h 77% 0.0 mm
07:39 16.8 °C 12.7 °C 1004.3 hPa Sur 21.7 km/h 33.8 km/h 76.8% 0.0 mm
07:44 16.8 °C 12.6 °C 1004.1 hPa Sur 20.4 km/h 30.6 km/h 76% 0.0 mm
07:49 16.8 °C 12.6 °C 1004.1 hPa Sur 19 km/h 31.7 km/h 76% 0.0 mm
07:54 17 °C 12.6 °C 1004.2 hPa Sur 18.7 km/h 32.3 km/h 75.4% 0.0 mm
07:59 17.2 °C 12.7 °C 1004.2 hPa Sur 18.4 km/h 33.8 km/h 75% 0.0 mm
08:04 17.1 °C 12.7 °C 1004.2 hPa Sur 17.7 km/h 33.8 km/h 75.3% 0.0 mm
08:09 17.1 °C 12.8 °C 1004.2 hPa Sur 17.2 km/h 37 km/h 76% 0.0 mm
08:14 17.1 °C 13 °C 1004.2 hPa Sur 18.1 km/h 46.3 km/h 76.5% 0.0 mm
08:19 17.1 °C 13.1 °C 1004.2 hPa Sur 19 km/h 46.7 km/h 77% 0.0 mm
08:24 17 °C 13 °C 1004.2 hPa SSE 20 km/h 41.2 km/h 77.3% 0.0 mm
08:29 17.1 °C 13 °C 1003.9 hPa SSE 20.9 km/h 41.8 km/h 77.1% 0.0 mm
08:34 17.1 °C 13.1 °C 1003.9 hPa SSE 22.2 km/h 35.4 km/h 77.2% 0.0 mm
08:39 17.2 °C 13.1 °C 1004.0 hPa SSE 23.3 km/h 35.4 km/h 77% 0.0 mm
08:44 17.3 °C 13.1 °C 1004.0 hPa Sur 21 km/h 37.8 km/h 76.4% 0.0 mm
08:49 17.5 °C 13.1 °C 1004.0 hPa SSO 19 km/h 37 km/h 75% 0.0 mm
08:54 17.6 °C 13 °C 1004.3 hPa SO 17.3 km/h 27.4 km/h 74.5% 0.0 mm
08:59 17.7 °C 12.9 °C 1004.3 hPa SSO 15.6 km/h 29.8 km/h 73.9% 0.0 mm
09:04 17.8 °C 12.9 °C 1004.3 hPa SSO 15.9 km/h 30.6 km/h 73% 0.0 mm
09:09 18 °C 12.9 °C 1004.5 hPa Sur 16.1 km/h 33.5 km/h 72.1% 0.0 mm
09:14 18.2 °C 13 °C 1004.5 hPa Sur 17.3 km/h 40.7 km/h 71.6% 0.0 mm
09:19 18.3 °C 13 °C 1004.5 hPa SSE 18.4 km/h 40.2 km/h 71% 0.0 mm
09:24 18.3 °C 13 °C 1004.5 hPa SSE 20.9 km/h 35.4 km/h 71% 0.0 mm
09:29 18.6 °C 12.8 °C 1004.0 hPa SSE 23.3 km/h 35.4 km/h 68.9% 0.0 mm
09:34 19 °C 12.6 °C 1004.0 hPa SSE 21.8 km/h 35.4 km/h 66.4% 0.0 mm
09:39 19.6 °C 12.1 °C 1004.0 hPa Sur 20.1 km/h 43.1 km/h 61.8% 0.0 mm
09:44 20.3 °C 11.9 °C 1003.5 hPa Sur 18.3 km/h 43.5 km/h 58.4% 0.0 mm
09:49 20.5 °C 11.7 °C 1003.5 hPa Sur 16.4 km/h 34.6 km/h 57.3% 0.0 mm
09:54 20.4 °C 12 °C 1004.0 hPa SSE 15.2 km/h 35.4 km/h 58.6% 0.0 mm
09:59 19.8 °C 12.7 °C 1004.0 hPa SSE 14 km/h 35.9 km/h 63.4% 0.0 mm
10:04 19.4 °C 12.6 °C 1004.0 hPa Sur 16.5 km/h 39.9 km/h 64.5% 0.0 mm
10:09 19.8 °C 12.2 °C 1004.5 hPa SSO 18.4 km/h 40.7 km/h 61.5% 0.0 mm
10:14 20.1 °C 12.3 °C 1004.5 hPa SSO 20.4 km/h 40.2 km/h 61% 0.0 mm
10:19 20 °C 12.3 °C 1004.5 hPa SSO 22.5 km/h 34.3 km/h 61% 0.0 mm
10:24 20 °C 12.4 °C 1005.0 hPa SSO 19.7 km/h 33.8 km/h 61.6% 0.0 mm
10:29 19.9 °C 12.4 °C 1005.0 hPa Sur 17.2 km/h 33.8 km/h 62% 0.0 mm
10:34 19.7 °C 12.7 °C 1005.0 hPa Sur 15.6 km/h 24.1 km/h 64.2% 0.0 mm
10:39 19.4 °C 12.8 °C 1005.3 hPa Sur 14 km/h 24.1 km/h 65.8% 0.0 mm
10:44 19.3 °C 12.8 °C 1005.3 hPa SSO 12.9 km/h 20.9 km/h 66.1% 0.0 mm
10:49 19.3 °C 13 °C 1005.3 hPa Sur 11.9 km/h 16.7 km/h 67% 0.0 mm
10:54 19.3 °C 13 °C 1005.5 hPa SSE 10.9 km/h 25.9 km/h 67% 0.0 mm
10:59 19.3 °C 13 °C 1005.5 hPa Sur 10 km/h 25.7 km/h 67% 0.0 mm
11:04 19.3 °C 13.2 °C 1005.5 hPa Sur 11.7 km/h 20.9 km/h 67.9% 0.0 mm
11:09 19.3 °C 13.1 °C 1005.6 hPa Sur 13 km/h 18.5 km/h 67.4% 0.0 mm
11:14 19.4 °C 13.1 °C 1005.6 hPa SSE 12.4 km/h 19.3 km/h 67% 0.0 mm
11:19 19.5 °C 13 °C 1005.6 hPa Sur 11.9 km/h 17.7 km/h 66.3% 0.0 mm
11:24 19.6 °C 13.1 °C 1005.6 hPa Sur 11.9 km/h 20.4 km/h 66% 0.0 mm
11:29 19.7 °C 13.2 °C 1005.5 hPa SSO 11.9 km/h 20.9 km/h 66% 0.0 mm
11:34 19.6 °C 13.1 °C 1005.5 hPa SSO 12.1 km/h 27.8 km/h 66% 0.0 mm
11:39 19.6 °C 13.1 °C 1005.5 hPa Sur 12.2 km/h 27.4 km/h 66% 0.0 mm
11:44 19.4 °C 13.1 °C 1005.1 hPa Sur 13 km/h 20.9 km/h 66.6% 0.0 mm
11:49 19.4 °C 13.1 °C 1005.1 hPa SSO 13.7 km/h 25.9 km/h 67% 0.0 mm
11:54 19.5 °C 13.1 °C 1005.2 hPa SSO 13.3 km/h 25.9 km/h 66.8% 0.0 mm
11:59 19.6 °C 13.2 °C 1005.2 hPa SSO 13 km/h 25.7 km/h 66.6% 0.0 mm
12:04 19.6 °C 13.3 °C 1005.2 hPa SSO 13.6 km/h 22.5 km/h 67% 0.0 mm
12:09 19.6 °C 13.3 °C 1005.5 hPa Sur 14 km/h 24.5 km/h 67.1% 0.0 mm
12:14 19.6 °C 13.6 °C 1005.5 hPa Sur 13 km/h 28.6 km/h 68% 0.0 mm
12:19 19.6 °C 13.6 °C 1005.5 hPa Sur 11.9 km/h 29.6 km/h 68% 0.0 mm
12:24 19.6 °C 13.6 °C 1005.6 hPa SSE 13.5 km/h 24.1 km/h 68.1% 0.0 mm
12:29 19.6 °C 13.6 °C 1005.6 hPa Sur 14.8 km/h 22.5 km/h 68% 0.0 mm
12:34 19.7 °C 13.6 °C 1005.6 hPa Sur 14.2 km/h 25.6 km/h 68% 0.0 mm
12:39 19.7 °C 13.7 °C 1005.6 hPa Sur 13.7 km/h 25.7 km/h 68.4% 0.0 mm
12:44 19.8 °C 13.9 °C 1005.5 hPa Sur 14.3 km/h 24.1 km/h 68.9% 0.0 mm
12:49 19.8 °C 13.9 °C 1005.5 hPa SSO 14.8 km/h 24.1 km/h 68.8% 0.0 mm
12:54 19.8 °C 13.7 °C 1005.5 hPa SSO 13.4 km/h 19.3 km/h 68% 0.0 mm
12:59 19.8 °C 13.8 °C 1005.3 hPa SSO 11.9 km/h 18 km/h 68% 0.0 mm
13:04 19.9 °C 13.7 °C 1005.3 hPa Sur 10.9 km/h 17.7 km/h 67.3% 0.0 mm
13:09 19.9 °C 13.6 °C 1005.3 hPa SSO 10 km/h 17.7 km/h 67% 0.0 mm
13:14 19.9 °C 13.8 °C 1005.2 hPa SO 9.7 km/h 17.7 km/h 67.6% 0.0 mm
13:19 19.9 °C 13.7 °C 1005.2 hPa SO 9.5 km/h 16.1 km/h 67.4% 0.0 mm
13:24 19.9 °C 13.8 °C 1005.4 hPa SSO 8.9 km/h 16.7 km/h 68% 0.0 mm
13:29 19.8 °C 13.8 °C 1005.4 hPa OSO 8.4 km/h 16.1 km/h 68.5% 0.0 mm
13:34 19.7 °C 13.9 °C 1005.4 hPa OSO 8.4 km/h 13.7 km/h 69% 0.0 mm
13:39 19.7 °C 14 °C 1005.4 hPa SO 8.4 km/h 14.5 km/h 69.5% 0.0 mm
13:44 19.6 °C 14 °C 1005.2 hPa SSO 8.4 km/h 15.6 km/h 70% 0.0 mm
13:49 19.6 °C 14 °C 1005.2 hPa SSO 8.4 km/h 18 km/h 70% 0.0 mm
13:54 19.6 °C 14 °C 1005.2 hPa Sur 10.3 km/h 20.4 km/h 70% 0.0 mm
13:59 19.5 °C 13.9 °C 1004.7 hPa Sur 12.2 km/h 20.9 km/h 70% 0.0 mm
14:04 19.6 °C 14.1 °C 1004.7 hPa Sur 10.8 km/h 13 km/h 70.5% 0.0 mm
14:09 19.6 °C 14.2 °C 1004.7 hPa Sur 9.5 km/h 12.9 km/h 71% 0.0 mm
14:14 19.6 °C 14.2 °C 1004.4 hPa SSO 8.5 km/h 11.9 km/h 71% 0.0 mm
14:19 19.6 °C 14.2 °C 1004.4 hPa SSO 7.6 km/h 11.9 km/h 71% 0.0 mm
14:24 19.6 °C 14.2 °C 1004.8 hPa SO 7.6 km/h 11.3 km/h 71.1% 0.0 mm
14:29 19.6 °C 14.4 °C 1004.8 hPa SO 7.6 km/h 11.3 km/h 72% 0.0 mm
14:34 19.4 °C 14.3 °C 1004.8 hPa SO 5.2 km/h 8 km/h 72% 0.0 mm
14:39 19.4 °C 14.4 °C 1004.8 hPa SO 3.2 km/h 8 km/h 73% 0.0 mm
14:44 19.3 °C 14.3 °C 1004.3 hPa SSO 2.7 km/h 10 km/h 73% 0.0 mm
14:49 19.3 °C 14.5 °C 1004.3 hPa SSO 2.2 km/h 11.1 km/h 73.9% 0.0 mm
14:54 19.2 °C 14.6 °C 1004.4 hPa SSO 4.5 km/h 11.3 km/h 74.9% 0.0 mm
14:59 19.1 °C 14.6 °C 1004.4 hPa Sur 6.5 km/h 17.2 km/h 75.4% 0.0 mm
15:04 19 °C 14.6 °C 1004.4 hPa Sur 7.7 km/h 22.2 km/h 75.6% 0.0 mm
15:09 19.1 °C 14.5 °C 1004.4 hPa Sur 8.7 km/h 22.5 km/h 75% 0.0 mm
15:14 19.1 °C 14.4 °C 1004.0 hPa SSO 10.8 km/h 22.5 km/h 74.2% 0.0 mm
15:19 19.2 °C 14.3 °C 1004.0 hPa Sur 13 km/h 24.1 km/h 73.4% 0.0 mm
15:24 19.2 °C 14.1 °C 1004.0 hPa Sur 12.5 km/h 25.9 km/h 72.1% 0.0 mm
15:29 19.2 °C 14.1 °C 1003.7 hPa Sur 11.9 km/h 25.9 km/h 72% 0.0 mm
15:34 19.2 °C 14 °C 1003.7 hPa Sur 12.5 km/h 25.9 km/h 71.7% 0.0 mm
15:39 19.2 °C 13.8 °C 1004.2 hPa SSO 13 km/h 25.9 km/h 70.6% 0.0 mm
15:44 19.3 °C 13.7 °C 1004.2 hPa Sur 13 km/h 28.2 km/h 70% 0.0 mm
15:49 19.4 °C 13.5 °C 1004.2 hPa Sur 13 km/h 27.8 km/h 69% 0.0 mm
15:54 19.3 °C 13.6 °C 1004.2 hPa Sur 13 km/h 24.1 km/h 69.6% 0.0 mm
15:59 19.3 °C 13.4 °C 1004.0 hPa SSE 13 km/h 20.4 km/h 69% 0.0 mm
16:04 19.3 °C 13.4 °C 1004.0 hPa Sur 12.4 km/h 20.9 km/h 69% 0.0 mm
16:09 19.3 °C 13.4 °C 1004.0 hPa SSE 11.9 km/h 22 km/h 69% 0.0 mm
16:14 19.3 °C 13.5 °C 1003.8 hPa Sur 12.5 km/h 22.5 km/h 69% 0.0 mm
16:19 19.4 °C 13.6 °C 1003.8 hPa Sur 13 km/h 29.8 km/h 69.3% 0.0 mm
16:24 19.3 °C 13.7 °C 1003.8 hPa Sur 14.4 km/h 30.6 km/h 70.4% 0.0 mm
16:29 19.1 °C 13.7 °C 1003.4 hPa SSE 15.6 km/h 29 km/h 71% 0.0 mm
16:34 19 °C 13.6 °C 1003.4 hPa SSE 15.9 km/h 29.6 km/h 71% 0.0 mm
16:39 19 °C 13.6 °C 1003.4 hPa Sur 16.1 km/h 29 km/h 71% 0.0 mm
16:44 18.9 °C 13.7 °C 1003.3 hPa Sur 14.5 km/h 20.9 km/h 71.6% 0.0 mm
16:49 18.9 °C 13.7 °C 1003.3 hPa Sur 13 km/h 27.8 km/h 72% 0.0 mm
16:54 18.9 °C 13.7 °C 1003.7 hPa Sur 13.4 km/h 27.4 km/h 72% 0.0 mm
16:59 19 °C 13.8 °C 1003.7 hPa SSO 13.7 km/h 20.9 km/h 72% 0.0 mm
17:04 19 °C 13.8 °C 1003.7 hPa Sur 11.6 km/h 16.1 km/h 72% 0.0 mm
17:09 18.9 °C 13.9 °C 1003.7 hPa Sur 10 km/h 14.5 km/h 73% 0.0 mm
17:14 18.9 °C 14 °C 1003.3 hPa Sur 8.3 km/h 13 km/h 73.2% 0.0 mm
17:19 18.9 °C 14.2 °C 1003.3 hPa SSO 6.5 km/h 13.7 km/h 74% 0.0 mm
17:24 18.9 °C 14.1 °C 1003.6 hPa SSO 6.7 km/h 14.5 km/h 74% 0.0 mm
17:29 18.8 °C 14.3 °C 1003.6 hPa SO 6.9 km/h 13 km/h 74.9% 0.0 mm
17:34 18.8 °C 14.3 °C 1003.6 hPa SSO 6.9 km/h 18.5 km/h 75% 0.0 mm
17:39 18.8 °C 14.5 °C 1003.6 hPa SSO 6.9 km/h 20.4 km/h 75.8% 0.0 mm
17:44 18.8 °C 14.5 °C 1003.0 hPa SSO 8.5 km/h 20.9 km/h 76% 0.0 mm
17:49 18.7 °C 14.4 °C 1003.0 hPa SSO 10 km/h 14.5 km/h 76% 0.0 mm
17:54 18.7 °C 14.3 °C 1003.0 hPa Sur 9.1 km/h 14.8 km/h 75.7% 0.0 mm
17:59 18.8 °C 14.3 °C 1003.0 hPa SSE 8.4 km/h 14.8 km/h 75% 0.0 mm
18:04 18.7 °C 14.2 °C 1003.0 hPa SSO 8.4 km/h 14.5 km/h 75% 0.0 mm
18:09 18.7 °C 14.2 °C 1003.0 hPa SSO 8.4 km/h 14.8 km/h 75% 0.0 mm
18:14 18.7 °C 14.2 °C 1003.0 hPa SO 8.5 km/h 22.5 km/h 75% 0.0 mm
18:19 18.7 °C 14.2 °C 1003.0 hPa SO 8.7 km/h 22.5 km/h 75% 0.0 mm
18:24 18.7 °C 14.3 °C 1003.0 hPa SSO 7.8 km/h 22.2 km/h 75.5% 0.0 mm
18:29 18.6 °C 14.3 °C 1003.0 hPa SSO 6.9 km/h 22.5 km/h 76% 0.0 mm
18:34 18.6 °C 14.4 °C 1003.0 hPa SO 7.8 km/h 16.7 km/h 76.7% 0.0 mm
18:39 18.5 °C 14.4 °C 1003.1 hPa SO 8.7 km/h 16.1 km/h 77% 0.0 mm
18:44 18.4 °C 14.3 °C 1003.1 hPa OSO 7.8 km/h 14.5 km/h 77% 0.0 mm
18:49 18.4 °C 14.4 °C 1003.1 hPa OSO 6.9 km/h 11.1 km/h 77.5% 0.0 mm
18:54 18.3 °C 14.4 °C 1003.1 hPa SSO 6.4 km/h 13 km/h 78% 0.0 mm
18:59 18.3 °C 14.4 °C 1003.1 hPa SO 5.8 km/h 16.7 km/h 78% 0.0 mm
19:04 18.3 °C 14.4 °C 1003.1 hPa SO 7.1 km/h 16.1 km/h 77.8% 0.0 mm
19:09 18.3 °C 14.2 °C 1003.1 hPa SO 8.4 km/h 12.9 km/h 77% 0.0 mm
19:14 18.3 °C 14.2 °C 1003.0 hPa Sur 7.3 km/h 11.9 km/h 77% 0.0 mm
19:19 18.3 °C 14.2 °C 1003.0 hPa ESE 6.5 km/h 11.3 km/h 77% 0.0 mm
19:24 18 °C 14 °C 1003.1 hPa ENE 5.1 km/h 8 km/h 77.6% 0.0 mm
19:29 17.6 °C 14 °C 1003.1 hPa NE 3.9 km/h 9.3 km/h 79.2% 0.0 mm
19:34 17.3 °C 13.9 °C 1003.1 hPa NNE 3.9 km/h 9.7 km/h 80.7% 0.0 mm
19:39 17.1 °C 14 °C 1003.2 hPa NE 3.9 km/h 8 km/h 81.9% 0.0 mm
19:44 16.9 °C 14 °C 1003.2 hPa ONO 3.9 km/h 8 km/h 82.9% 0.0 mm
19:49 16.9 °C 14 °C 1003.2 hPa Oeste 3.9 km/h 8.4 km/h 83% 0.0 mm
19:54 16.9 °C 14 °C 1003.2 hPa NO 3.9 km/h 8 km/h 83% 0.0 mm
19:59 16.8 °C 13.9 °C 1002.8 hPa NNE 3.9 km/h 8 km/h 83% 0.0 mm
20:04 16.7 °C 13.8 °C 1002.8 hPa NE 3.3 km/h 8 km/h 83.3% 0.0 mm
20:09 16.7 °C 14.1 °C 1002.8 hPa Sur 2.9 km/h 13 km/h 84.4% 0.0 mm
20:14 16.9 °C 14.2 °C 1002.8 hPa SSE 4 km/h 14 km/h 84% 0.0 mm
20:19 17.2 °C 14.3 °C 1002.8 hPa SSO 5 km/h 17.2 km/h 82.8% 0.0 mm
20:24 17.7 °C 14.3 °C 1002.8 hPa SSO 7.4 km/h 19 km/h 80.4% 0.0 mm
20:29 18.2 °C 14.3 °C 1002.3 hPa SSO 10 km/h 24.5 km/h 78.1% 0.0 mm
20:34 18.4 °C 14.2 °C 1002.3 hPa SSO 11.1 km/h 24.1 km/h 76.1% 0.0 mm
20:39 18.7 °C 14.1 °C 1002.4 hPa SSO 12.2 km/h 31.5 km/h 74.9% 0.0 mm
20:44 18.7 °C 13.9 °C 1002.4 hPa SSO 14 km/h 32.2 km/h 74% 0.0 mm
20:49 18.7 °C 13.9 °C 1002.4 hPa SSO 15.6 km/h 24.1 km/h 73.6% 0.0 mm
20:54 18.8 °C 13.8 °C 1002.4 hPa SSO 14.3 km/h 24.1 km/h 73% 0.0 mm
20:59 18.7 °C 13.8 °C 1002.1 hPa SSO 13 km/h 19.3 km/h 72.8% 0.0 mm
21:04 18.7 °C 13.6 °C 1002.1 hPa SSO 11.9 km/h 19 km/h 72% 0.0 mm
21:09 18.8 °C 13.5 °C 1002.1 hPa SSO 11.1 km/h 22.5 km/h 71.4% 0.0 mm
21:14 18.9 °C 13.4 °C 1002.0 hPa SSO 12.1 km/h 24.1 km/h 70.3% 0.0 mm
21:19 19.2 °C 13.3 °C 1002.0 hPa SSO 13 km/h 26.2 km/h 68.9% 0.0 mm
21:24 19.3 °C 13.1 °C 1002.0 hPa SSO 14.4 km/h 25.7 km/h 67.5% 0.0 mm
21:29 19.4 °C 13.1 °C 1002.0 hPa SSO 15.6 km/h 24.1 km/h 66.8% 0.0 mm
21:34 19.5 °C 12.9 °C 1002.0 hPa SSO 15.2 km/h 22.5 km/h 65.7% 0.0 mm
21:39 19.7 °C 12.9 °C 1002.3 hPa SSO 14.8 km/h 24.5 km/h 64.6% 0.0 mm
21:44 19.8 °C 12.8 °C 1002.3 hPa SSO 14.2 km/h 24.1 km/h 64% 0.0 mm
21:49 19.9 °C 12.9 °C 1002.3 hPa SSO 13.7 km/h 24.5 km/h 64% 0.0 mm
21:54 19.8 °C 12.9 °C 1002.4 hPa SSO 13.7 km/h 24.5 km/h 64.4% 0.0 mm
21:59 19.7 °C 12.9 °C 1002.4 hPa SSO 13.7 km/h 24.1 km/h 65% 0.0 mm
22:04 19.6 °C 13 °C 1002.4 hPa SSO 13.7 km/h 24.1 km/h 66% 0.0 mm
22:09 19.6 °C 13.1 °C 1002.4 hPa SSO 13.7 km/h 24.1 km/h 66% 0.0 mm
22:14 19.5 °C 13 °C 1002.3 hPa SSO 13.7 km/h 24.1 km/h 66% 0.0 mm
22:19 19.3 °C 13 °C 1002.3 hPa SSO 13.7 km/h 20.9 km/h 66.6% 0.0 mm
22:24 19.2 °C 13 °C 1002.4 hPa SSO 11.8 km/h 16.7 km/h 67% 0.0 mm
22:29 19.1 °C 13 °C 1002.4 hPa SSO 10 km/h 18.5 km/h 67.8% 0.0 mm
22:34 19.1 °C 13.1 °C 1002.4 hPa SSO 10.5 km/h 19.3 km/h 68% 0.0 mm
22:39 19.1 °C 13.1 °C 1002.4 hPa SSO 11.1 km/h 16.1 km/h 68% 0.0 mm
22:44 19.1 °C 13 °C 1002.3 hPa SSO 10.7 km/h 19 km/h 67.8% 0.0 mm
22:49 19.2 °C 13 °C 1002.3 hPa SSO 10.3 km/h 19.3 km/h 67.1% 0.0 mm
22:54 19.1 °C 13 °C 1002.3 hPa Sur 11.1 km/h 20.9 km/h 68% 0.0 mm
22:59 18.8 °C 13 °C 1002.3 hPa Sur 11.9 km/h 20.9 km/h 68.7% 0.0 mm
23:04 18.7 °C 12.9 °C 1002.3 hPa SSO 12.8 km/h 24.5 km/h 69% 0.0 mm
23:09 18.7 °C 13 °C 1002.3 hPa SSO 13.7 km/h 24.1 km/h 69.4% 0.0 mm
23:14 18.7 °C 13.1 °C 1002.1 hPa SSO 13.7 km/h 22.2 km/h 70% 0.0 mm
23:19 18.6 °C 13 °C 1002.1 hPa SSO 13.7 km/h 24.5 km/h 70% 0.0 mm
23:24 18.6 °C 13 °C 1002.1 hPa SSO 13.8 km/h 24.1 km/h 70% 0.0 mm
23:29 18.6 °C 13 °C 1002.1 hPa SO 14 km/h 22.5 km/h 70% 0.0 mm
23:34 18.7 °C 13.1 °C 1002.1 hPa SSO 13.8 km/h 24.1 km/h 70% 0.0 mm
23:39 18.6 °C 13 °C 1002.3 hPa Sur 13.7 km/h 24.1 km/h 70.1% 0.0 mm
23:44 18.4 °C 13.1 °C 1002.3 hPa SSO 14.7 km/h 29.6 km/h 71% 0.0 mm
23:49 18.4 °C 13.1 °C 1002.3 hPa SSO 15.6 km/h 29 km/h 71% 0.0 mm
23:54 18.4 °C 13.1 °C 1002.3 hPa SSO 16 km/h 27.8 km/h 70.9% 0.0 mm
23:59 18.7 °C 13.1 °C 1002.2 hPa SSO 16.4 km/h 27.4 km/h 69.8% 0.0 mm
Murcia-Puente Tocinos, España
Compliments of Weather Underground - 3 mb

La estación de MeteoMurcia.com, publica sus datos en los siguientes proyectos:

Weather Underground PWS IMURCIAP2 Meteoclimatic www.awekas.at

W3Counter
Web Analytics